Timeline UpdatesTrip UpdatesNews PostsPvt PostsTravel TipsAdmin PostsConv PostsFollowed PostsChat RequestsBlog PostsPNR Posts

Disclaimer
Search
 
 
Thu Oct 2, 2014 09:57:51 ISTHomeTrainsΣChainsAtlasPNRForumGalleryNewsFAQTripsMembersLoginFeedback
No Recent News for this Train
Other Trains in the News **new
Latest...
.
Wed May 15, 2013 (12:03AM)
⇐ Return Journey: Train# 59439

59440/Ahmedabad - Mumbai Central Passenger

Time-Table HAS CHANGED.
Sep 02 (11:08PM)
Change Departure Station:
Change Arrival Station:
Post a Train Travel TipPost a Train Travel Tip **new
Post a Comment/Question/Picture/VideoPost a Comment/Question/Picture/Video
Pantry/Catering
✕ NO Pantry Car
✕ NO Catering
RSA - Rake Sharing
59439,59440,59441 and 59442 all share rakes.
Rake/Coach Composition
Loco
BL WCAM-1/BRC WAG-5A
News    PNR    Forum    Time-Table    Availability    Fare Chart    Map    Arr/Dep History    Trips    Gallery    ΣChains    X/O    Timeline    
Travel Time: 12h 23m    51 halts    Distance: 373 km    Avg Speed: 30 km/hr
Type: Passenger
Zone: WR/Western
Departs @ 23:00 (Avg 1m late)
Platform# 2
SMTWTFS
Ahmedabad Junction/ADI 
Arrives @ 11:23 +1 night (Avg 3m late)
Platform# ???
SMTWTFS
Dahanu Road/DRD 

51 halts. 72 intermediate Stations between Ahmedabad Junction and Dahanu Road

Hide intermediate Stations  Show Old Time-Table

#CodeStation NameX/OArrivesAvgDepartsAvgHaltPFDay#KmSpeedElevZoneAddress
1ADIAhmedabad Junction (12)»  -23:00+1210.02451mWRAhmedabad, Gujarat
1.1KKFKankaria  23:05-23:05-  11.8 2448mWRAhmedabad, Gujarat
2MANManinagar (2)X  23:10 23:08+023:12 23:10+02m213.25850mWRAhmadabad, Gujarat
3VTAVatva (4)X  23:17 23:15+523:19 23:17+52m--18.02549mWRDist. Ahmedabad 382445, Gujarat
3.1GERGeratpur (2)XO  23:30-23:30-  113.3 2544mWRAhmadabad, Gujarat
4BJDBarejadi Nandej (3)XO  23:40 23:38+1223:41 23:40+111 2m--116.65242mWRBareja-Barejadi Rd, Gujarat
5KANJKanij (3)  23:47 23:45+1323:48 23:47+181 2m--121.01239mWRBareja-Barejadi Rd, Gujarat
6NEPNenpur (2)O  00:02 00:01-00:03 00:02-1m--223.85035mWRState Highway 3, Gujarat
7MHDMahemdavad Kheda Road (4)X  00:09 00:07+900:10 00:09+161 2m--228.03837mWRMahemdavad, Gujarat
8GTEGothaj (2)X  00:24 00:22+1500:26 00:24+182m--236.35032mWRState Highway 3, Gujarat
9NDNadiad Junction (4)X  00:35+1300:39+124m--245.67337mWRNadiad, Gujarat
9.1UTDUtarsanda (4)X  00:44-00:44-  251.1 7340mWRUttarsanda, Gujarat
10KBRVKanjari Boriyavi Junction (4)XO  00:50 00:48+2100:52 00:50+212m--256.61839mWRKanjari, Gujarat
11ANNDAnand Junction (6)  01:15+701:20+55m--264.06944mWRAnand, Gujarat
12VXDVadod (3)X  01:28 01:26+1101:29 01:28+111 2m--270.94144mWRAnand District, Gujarat
13ADDAdas Road (4)X  01:36 01:34+1101:37 01:36+101 2m--274.94642mWRNational Highway 8, Gujarat
14VDAVasad Junction (3)  01:44 01:42+1001:46 01:44+102m--279.66940mWRVasad, Gujarat
14.1NDRNandesari (2)  01:48-01:48-  284.6 6942mWRNandesari, Gujarat
15RNORanoli (2)X  01:54 01:52+1101:55 01:54+111 2m--288.72339mWRVadodara District, Gujarat
15.1KRCAKarachiya YardX  01:59-01:59-  290.5 2339mWRVadodara, Gujarat
16BJWBajva (3)X  02:06 02:04+1102:07 02:06+111 2m--292.51638mWRVadodara, Gujarat
16.1BRGYVadodara D Cabin  02:31-02:31-  299.1 1636mWRVadodara, Gujarat
17BRCVadodara Junction (7)X  02:33+602:38+75m--299.87336mWRVadodara 390005, Gujarat
17.1VSVishvamitri (4)  02:40-02:40-  2102.7 7330mWRVadodara, Gujarat
17.2MPRMakarpura (4)X  02:45-02:45-  2108.5 7330mWRVadodara, Gujarat
17.3VRMVarnama (2)  02:50-02:50-  2114.1 7328mWRVadodara, Gujarat
18ITAItola (4)  02:55 02:53+3002:56 02:55+471 2m--2118.07727mWRNational Highway 8 Vadodara, Gujarat
18.1KSPRKashipura Sarar (2)X  02:58-02:58-  2121.8 7726mWRGIDC Industrial Area, Gujarat
19MYGMiyagam Karjan (2)  03:06 03:04+4403:08 03:06+442m--2129.67029mWRKarjan, Gujarat
19.1MYGLMiyagam Karjan Junction NGX  03:06-03:06-  2129.6 700mWRKarjan, Gujarat
19.2LKDLakodara (4)  03:13-03:13-  2137.6 7026mWRNH 8, Gujarat
20PLJPalej (4)X  03:21 03:19+4103:23 03:21+442m--2144.94529mWRPalej, Gujarat
20.1VREVarediya (4)XO  03:30-03:30-  2151.5 4521mWRNH 8, Gujarat
20.2NIUNabipur (3)X  03:58 03:39-03:59 03:39-  2158.2 4524mWRNabipur, Gujarat
20.3CVJChavaj (2)XO  03:48-03:48-  2165.3 4520mWRBharuch, Gujarat
21BHBharuch Junction (5)XO  04:15 03:55+2904:20 04:13+265 18m42170.38019mWRBharuch, Gujarat
22AKVAnkleshwar Junction (4)X  04:39 04:20+3504:41 04:22+352m22179.66219mWRAnkleshwar, Gujarat
22.1SNJLSanjali (2)X  04:28-04:28-  2185.7 6223mWRSanjali, Gujarat
23PAOPanoli (3)X  04:50 04:32+3804:52 04:33+422 1m--2189.92329mWRPanoli, Gujarat
24HATHathuran (2)X  04:58 04:43-05:00 04:44-2 1m--2193.85232mWRKosamba, Gujarat
25KSBKosamba Junction (3)XO  05:05 04:49+4005:07 04:51+392m--2198.15230mWRKosamba, Gujarat
26KIMKim (2)X  05:16 05:00+3805:18 05:02+442m--2205.91818mWRNH 8, Gujarat
26.1KDSDKudsad (2)X  05:34 05:12-05:36 05:12-  2208.7 1818mWRNH 8, Gujarat
27SYNSayan (3)XO  05:42 05:36+2805:44 05:38+332m--2215.91421mWRSayan Satellite town, Gujarat
28GTXGothangam (2)XO  05:58 05:51+2606:00 05:53+252m--2218.81219mWRAmroli Sayan Rd, Gujarat
29KSEKosad (2)  06:06 06:11+1706:08 06:13+182m--2222.52417mWRSurat, Gujarat
30URNUtran (3)XO  06:23 06:21+1406:25 06:23+192m--2225.7715mWRSurat, Gujarat
31STSurat (4)XOO  06:55+1207:15+920m32229.64019mWRSurat 395001, Gujarat
32UDNUdhna Junction (3)X  07:21+1107:23+112m22233.64816mWRUdhna 394210, Gujarat
33BHETBhestan (2)  07:31 07:29+1307:32 07:31+141 2m22238.46813mWRSurat, Gujarat
34SCHSachin (3)O  07:38 07:36+1607:40 07:38+162m--2244.15711mWRKansad Road Sachin, Gujarat
35MRLMaroli (3)XO  07:46 07:45+1707:48 07:47+172m--2250.73015mWRMaroli, Gujarat
36NVSNavsari (3)  08:05 08:04+1108:06+151 2m--2259.25614mWRNavsari, Gujarat
36.1GNSTGandhi Smriti (2)  08:09-08:09-  2262.2 5616mWRGandhi Smriti Navsari, Gujarat
36.2HXRHansapore (2)X  08:11-08:11-  2263.8 5615mWRHansapore, Gujarat
37VDHVedchha (3)X  08:16 08:15+1608:17+161 2m--2267.65113mWRNavsari, Gujarat
38ACLAncheli (2)X  08:21-08:23-2m--2271.05720mWRNavsari, Gujarat
39AMLAmalsad (3)  08:27+1608:29+172m--2274.85612mWRAmalsad, Gujarat
40BIMBilimora Junction (4)O  08:35+1608:37+182m--2280.34711mWRBilimora, Gujarat
41JRSJoravasan (2)  08:42-08:44-2m--2284.37615mWRJoravasan, Gujarat
42DGIDungri (3)XO  08:48+2108:50+222m--2289.42120mWRNH 8, Gujarat
43BLValsad (3)X  09:15+509:20+65m--2298.38015mWRValsad, Gujarat
44ATULAtul (3)  09:25+1409:27+132m--2305.06022mWRValsad, Gujarat
45PADPardi (3)  09:31+1309:33+122m--2308.94519mWRValsad, Gujarat
46UVDUdvada (3)XO  09:41+1109:43+172m--2314.92518mWRUdvada, Gujarat
46.1BAGDBagwada (2)  09:49 09:50-09:51 09:50-  2317.8 2522mWRNH8, Gujarat
47VAPIVapi (3)X  10:06+910:08+102m--2324.54827mWRVapi, Gujarat
48KEBKarambeli (2)XO  10:16-10:18-2m--2331.04829mWRNational Highway 8, Gujarat
49BLDBhilad (3)X  10:24+1310:26+142m--2335.86933mWRBhilad, Gujarat
50SJNSanjan (3)X  10:36+1410:38+162m--2347.45422mWRSanjan, Gujarat
51UBRUmbargam Road (3)  10:44+1710:46+192m32352.73230mWRUmbergaon, Gujarat
51.1BRRDBordi Road (2)XO  10:54-10:54-  2357.0 3217mWRBordi, Maharashtra
52GVDGholvad (4)  11:03+711:05+92m--2361.93714mWRGholvad, Maharashtra
53DRDDahanu Road (5)•  11:22 11:23+311:25+83 2m--2373.05712mWRDahanu, Maharashtra
54VGNVangaon (3)X  11:38+1111:40+152m--2385.36311mWRDist. Palghar, Maharashtra
55BORBoisar (3)  11:49+1311:51+132m32394.73817mWRBoisar Tel.no-02525-266626, Maharashtra
55.1UOIUmroli (2)X  11:59-11:59-  2399.6 388mWRBoisar, Maharashtra
56PLGPalghar (3)XO  12:09+112:11+22m--2406.05619mWRPalghar, Maharashtra
57KLVKelve Road (3)X  12:20+1012:22+112m--2414.46410mWRDist. Palghar, Maharashtra
58SAHSaphale (2)X  12:28+1112:30+112m22420.8588mWRDist. Palghar, Maharashtra
59VTNVaitarna (2)XO  12:38+1312:40+122m22428.6133mWRDist. Palghar, Maharashtra
60VRVirar (8)X  13:20 13:18-113:28 13:20+38 2m42437.1286mWRDist. Palghar, Maharashtra
60.1NSPNallasopara (4)XO  13:29-13:29-  2441.4 285mWRNallasopara station Rd, Maharashtra
61BSRVasai Road (7)X  13:36 13:38+013:38 13:40+02m52445.6427mWRVasai 401202, Maharashtra
61.1NIGNaigaon (4)  13:45-13:45-  2449.3 425mWRNaigaon West, Maharashtra
61.2BYRBhayandar (6)  13:52-13:52-  2454.0 426mWRThane, Maharashtra
61.3MIRAMira Road (4)  13:57-13:57-  2457.2 423mWRMira Bhayandar, Maharashtra
61.4DICDahisar (4)  14:02-14:02-  2460.7 4214mWRMumbai, Maharashtra
62BVIMumbai Borivali (8)  14:05+114:13 -62463.0-19mWRMumbai - 400092, Maharashtra
Scroll to Top
Scroll to Bottom